ADDS METAR Data INFO
IDs: Format: Raw Decoded Include TAF

Data at: 1246 UTC 19 Oct 2017

KSDF 191156Z 12004KT 10SM CLR 09/07 A3025 RMK AO2 SLP244 T00890067 10128 20089 51013
KSDF 191056Z 15005KT 10SM CLR 09/07 A3024 RMK AO2 SLP239 T00940067
KSDF 190956Z 13005KT 10SM CLR 09/07 A3024 RMK AO2 SLP237 T00940067
KSDF 190856Z 16003KT 10SM FEW250 12/07 A3022 RMK AO2 SLP229 T01220072 51006
KSDF 190756Z 12005KT 10SM FEW250 11/08 A3021 RMK AO2 SLP230 T01060078
KSDF 190656Z 13006KT 10SM FEW250 11/08 A3020 RMK AO2 SLP226 T01060078
KSDF 190556Z 13005KT 10SM FEW250 11/08 A3020 RMK AO2 SLP225 T01110083 10178 20111 58002
KSDF 190456Z 14005KT 10SM FEW250 12/08 A3020 RMK AO2 SLP226 T01220083 402220067
KSDF 190356Z 17003KT 10SM CLR 14/08 A3021 RMK AO2 SLP227 T01390083
KSDF 190256Z 14004KT 10SM CLR 13/08 A3021 RMK AO2 SLP228 T01330083 58001
KSDF 190156Z 19004KT 10SM CLR 14/09 A3021 RMK AO2 SLP229 T01440089
KSDF 190056Z 17005KT 10SM CLR 16/09 A3021 RMK AO2 SLP229 T01610089
KSDF 182356Z 16006KT 10SM CLR 18/08 A3021 RMK AO2 SLP229 T01780078 10222 20178 55001
KSDF 182256Z 17006KT 10SM FEW200 FEW250 19/07 A3020 RMK AO2 SLP227 T01940072
KSDF 182156Z 18009KT 10SM FEW150 FEW200 SCT250 21/07 A3021 RMK AO2 SLP229 T02110072
KSDF 182056Z 16010KT 10SM FEW150 FEW200 BKN250 22/07 A3021 RMK AO2 SLP229 T02170067 56018
KSDF 181956Z VRB05KT 10SM FEW150 SCT200 BKN250 21/06 A3023 RMK AO2 SLP235 T02110056
KSDF 181856Z COR 17007KT 10SM FEW150 BKN200 22/07 A3024 RMK AO2 SLP239 T02170072
KSDF 181756Z 18008KT 10SM FEW200 21/08 A3026 RMK AO2 SLP247 T02060078 10211 20067 58021
KSDF 181656Z 22007KT 10SM FEW150 FEW200 20/07 A3030 RMK AO2 SLP259 T02000072
KSDF 181556Z VRB03KT 10SM FEW200 17/09 A3032 RMK AO2 SLP268 T01670089
KSDF 181456Z 00000KT 10SM FEW250 13/08 A3033 RMK AO2 SLP269 T01330083 51009
KSDF 181356Z 14003KT 10SM FEW250 10/07 A3033 RMK AO2 SLP269 T01000072
KSDF 181256Z 14003KT 10SM FEW250 08/06 A3031 RMK AO2 SLP265 T00780061
KSDF 181156Z 13004KT 10SM FEW250 07/06 A3030 RMK AO2 SLP260 T00720056 10100 20067 51010
KSDF 181056Z 14005KT 10SM FEW250 07/06 A3029 RMK AO2 SLP256 T00720061
KSDF 180956Z 13004KT 10SM FEW250 08/06 A3028 RMK AO2 SLP253 T00780061
KSDF 180856Z 15004KT 10SM FEW250 09/07 A3027 RMK AO2 SLP248 T00940072 51000
KSDF 180756Z 13004KT 10SM FEW250 08/07 A3027 RMK AO2 SLP249 T00830067
KSDF 180656Z 14003KT 10SM FEW250 09/07 A3027 RMK AO2 SLP249 T00940072
KSDF 180556Z 13003KT 10SM FEW250 09/07 A3027 RMK AO2 SLP249 T00940072 10161 20094 58003
KSDF 180456Z 00000KT 10SM FEW250 11/07 A3027 RMK AO2 SLP250 T01110072 401940061
KSDF 180356Z 15006KT 10SM FEW250 11/08 A3027 RMK AO2 SLP251 T01110083
KSDF 180256Z 00000KT 10SM FEW250 12/07 A3028 RMK AO2 SLP252 T01170072 53005
KSDF 180156Z 00000KT 10SM FEW250 14/07 A3027 RMK AO2 SLP249 T01390072
KSDF 180056Z 14004KT 10SM FEW250 14/07 A3027 RMK AO2 SLP251 T01390067